Arsenal, Pennsylvania
Current Conditions -  °F | °C
As of 3:53 AM on Saturday 22 Nov 2014 (Local Time) from KAGC Reporting Station
Haze Haze  
Wind Chill:   Ceiling: Unl
Heat Index: 16°   Visibility: 6mi
Dew Point:   Wind: 8mph
Humidity: 74%   Direction: 140°SE
Pressure: 30.37"   Gusts: NA
Location:  40.4738°N, 79.952°W
Report Text: KAGC 220853Z 14007KT 6SM HZ CLR M09/M13 A3037 RMK AO2 SLP308 T10891128 58010
Loading
Personal Weather Stations






























Interactive Weather Map New forecast layout! Learn more

10-Day Weather Forecast

Advertisements
Track Severe Weather on mobile